sensor_id;sensor_type;location;lat;lon;timestamp;P1;durP1;ratioP1;P2;durP2;ratioP2
9819;SDS011;4949;48.482;9.206;2023-02-28T00:02:02;6.40;;;4.93;;
9819;SDS011;4949;48.482;9.206;2023-02-28T00:07:07;6.13;;;4.43;;
9819;SDS011;4949;48.482;9.206;2023-02-28T00:12:08;6.03;;;5.43;;
9819;SDS011;4949;48.482;9.206;2023-02-28T00:17:12;5.83;;;5.00;;
9819;SDS011;4949;48.482;9.206;2023-02-28T00:22:13;4.57;;;4.17;;
9819;SDS011;4949;48.482;9.206;2023-02-28T00:27:17;7.40;;;4.87;;
9819;SDS011;4949;48.482;9.206;2023-02-28T00:32:18;6.10;;;3.90;;
9819;SDS011;4949;48.482;9.206;2023-02-28T00:37:19;6.63;;;4.37;;
9819;SDS011;4949;48.482;9.206;2023-02-28T00:42:20;5.47;;;4.03;;
9819;SDS011;4949;48.482;9.206;2023-02-28T00:47:24;5.10;;;4.70;;
9819;SDS011;4949;48.482;9.206;2023-02-28T00:52:25;6.10;;;4.60;;
9819;SDS011;4949;48.482;9.206;2023-02-28T00:57:29;5.30;;;4.80;;
9819;SDS011;4949;48.482;9.206;2023-02-28T01:02:32;5.23;;;4.40;;
9819;SDS011;4949;48.482;9.206;2023-02-28T01:07:35;6.20;;;5.40;;
9819;SDS011;4949;48.482;9.206;2023-02-28T01:12:38;6.07;;;5.13;;
9819;SDS011;4949;48.482;9.206;2023-02-28T01:17:39;9.33;;;5.07;;
9819;SDS011;4949;48.482;9.206;2023-02-28T01:22:40;4.97;;;4.50;;
9819;SDS011;4949;48.482;9.206;2023-02-28T01:27:40;4.60;;;4.07;;
9819;SDS011;4949;48.482;9.206;2023-02-28T01:32:41;5.60;;;3.60;;
9819;SDS011;4949;48.482;9.206;2023-02-28T01:37:42;3.87;;;3.50;;
9819;SDS011;4949;48.482;9.206;2023-02-28T01:42:43;4.57;;;3.73;;
9819;SDS011;4949;48.482;9.206;2023-02-28T01:47:43;4.60;;;3.77;;
9819;SDS011;4949;48.482;9.206;2023-02-28T01:52:47;4.10;;;3.70;;
9819;SDS011;4949;48.482;9.206;2023-02-28T01:57:54;4.40;;;3.70;;
9819;SDS011;4949;48.482;9.206;2023-02-28T02:03:10;4.67;;;4.00;;
9819;SDS011;4949;48.482;9.206;2023-02-28T02:08:20;5.23;;;4.07;;
9819;SDS011;4949;48.482;9.206;2023-02-28T02:13:28;7.00;;;3.73;;
9819;SDS011;4949;48.482;9.206;2023-02-28T02:18:53;4.70;;;4.30;;
9819;SDS011;4949;48.482;9.206;2023-02-28T02:24:14;4.73;;;4.33;;
9819;SDS011;4949;48.482;9.206;2023-02-28T02:34:56;3.70;;;3.30;;
9819;SDS011;4949;48.482;9.206;2023-02-28T02:45:25;4.53;;;3.80;;
9819;SDS011;4949;48.482;9.206;2023-02-28T02:50:54;4.37;;;3.97;;
9819;SDS011;4949;48.482;9.206;2023-02-28T02:55:58;5.50;;;4.50;;
9819;SDS011;4949;48.482;9.206;2023-02-28T03:01:08;5.30;;;4.33;;
9819;SDS011;4949;48.482;9.206;2023-02-28T03:06:15;5.03;;;4.33;;
9819;SDS011;4949;48.482;9.206;2023-02-28T03:11:16;4.67;;;4.10;;
9819;SDS011;4949;48.482;9.206;2023-02-28T03:32:26;5.43;;;4.30;;
9819;SDS011;4949;48.482;9.206;2023-02-28T03:37:49;6.37;;;4.20;;
9819;SDS011;4949;48.482;9.206;2023-02-28T03:43:26;4.97;;;4.27;;
9819;SDS011;4949;48.482;9.206;2023-02-28T03:48:41;6.27;;;4.07;;
9819;SDS011;4949;48.482;9.206;2023-02-28T03:53:50;4.90;;;4.20;;
9819;SDS011;4949;48.482;9.206;2023-02-28T03:59:04;6.20;;;5.60;;
9819;SDS011;4949;48.482;9.206;2023-02-28T04:04:12;6.53;;;4.27;;
9819;SDS011;4949;48.482;9.206;2023-02-28T04:09:17;5.53;;;4.47;;
9819;SDS011;4949;48.482;9.206;2023-02-28T04:14:20;5.47;;;5.03;;
9819;SDS011;4949;48.482;9.206;2023-02-28T04:19:26;6.03;;;5.00;;
9819;SDS011;4949;48.482;9.206;2023-02-28T04:24:31;6.43;;;4.83;;
9819;SDS011;4949;48.482;9.206;2023-02-28T04:29:35;5.23;;;4.73;;
9819;SDS011;4949;48.482;9.206;2023-02-28T04:34:38;8.17;;;4.67;;
9819;SDS011;4949;48.482;9.206;2023-02-28T04:39:40;5.23;;;4.73;;
9819;SDS011;4949;48.482;9.206;2023-02-28T04:44:45;8.77;;;5.80;;
9819;SDS011;4949;48.482;9.206;2023-02-28T04:49:51;4.90;;;4.50;;
9819;SDS011;4949;48.482;9.206;2023-02-28T04:54:52;5.23;;;4.80;;
9819;SDS011;4949;48.482;9.206;2023-02-28T04:59:57;5.57;;;4.73;;
9819;SDS011;4949;48.482;9.206;2023-02-28T05:04:58;7.33;;;5.33;;
9819;SDS011;4949;48.482;9.206;2023-02-28T05:10:06;9.63;;;5.93;;
9819;SDS011;4949;48.482;9.206;2023-02-28T05:15:09;5.47;;;5.03;;
9819;SDS011;4949;48.482;9.206;2023-02-28T05:20:14;4.93;;;4.53;;
9819;SDS011;4949;48.482;9.206;2023-02-28T05:25:16;7.63;;;6.30;;
9819;SDS011;4949;48.482;9.206;2023-02-28T05:30:22;6.07;;;5.47;;
9819;SDS011;4949;48.482;9.206;2023-02-28T05:35:23;6.50;;;5.80;;
9819;SDS011;4949;48.482;9.206;2023-02-28T05:40:26;6.00;;;5.40;;
9819;SDS011;4949;48.482;9.206;2023-02-28T05:45:27;8.50;;;5.43;;
9819;SDS011;4949;48.482;9.206;2023-02-28T05:50:28;7.10;;;6.40;;
9819;SDS011;4949;48.482;9.206;2023-02-28T05:55:33;6.43;;;5.43;;
9819;SDS011;4949;48.482;9.206;2023-02-28T06:00:37;7.63;;;6.47;;
9819;SDS011;4949;48.482;9.206;2023-02-28T06:05:40;7.50;;;6.00;;
9819;SDS011;4949;48.482;9.206;2023-02-28T06:10:40;7.40;;;6.63;;
9819;SDS011;4949;48.482;9.206;2023-02-28T06:15:41;6.50;;;5.80;;
9819;SDS011;4949;48.482;9.206;2023-02-28T06:20:53;6.23;;;5.73;;
9819;SDS011;4949;48.482;9.206;2023-02-28T06:25:59;7.10;;;5.80;;
9819;SDS011;4949;48.482;9.206;2023-02-28T06:31:14;10.83;;;6.97;;
9819;SDS011;4949;48.482;9.206;2023-02-28T06:36:20;11.63;;;7.70;;
9819;SDS011;4949;48.482;9.206;2023-02-28T06:41:24;8.47;;;6.23;;
9819;SDS011;4949;48.482;9.206;2023-02-28T06:46:26;6.97;;;6.27;;
9819;SDS011;4949;48.482;9.206;2023-02-28T06:51:27;8.20;;;7.30;;
9819;SDS011;4949;48.482;9.206;2023-02-28T06:56:30;7.63;;;6.77;;
9819;SDS011;4949;48.482;9.206;2023-02-28T07:01:31;8.87;;;7.63;;
9819;SDS011;4949;48.482;9.206;2023-02-28T07:06:32;8.00;;;7.20;;
9819;SDS011;4949;48.482;9.206;2023-02-28T07:11:36;8.70;;;7.80;;
9819;SDS011;4949;48.482;9.206;2023-02-28T07:16:37;9.13;;;7.60;;
9819;SDS011;4949;48.482;9.206;2023-02-28T07:21:44;8.93;;;7.70;;
9819;SDS011;4949;48.482;9.206;2023-02-28T07:26:47;9.30;;;8.40;;
9819;SDS011;4949;48.482;9.206;2023-02-28T07:31:50;10.53;;;8.80;;
9819;SDS011;4949;48.482;9.206;2023-02-28T07:36:54;10.67;;;9.23;;
9819;SDS011;4949;48.482;9.206;2023-02-28T07:41:57;8.93;;;7.73;;
9819;SDS011;4949;48.482;9.206;2023-02-28T07:47:02;9.80;;;7.77;;
9819;SDS011;4949;48.482;9.206;2023-02-28T07:52:03;8.90;;;8.00;;
9819;SDS011;4949;48.482;9.206;2023-02-28T07:57:06;10.60;;;9.47;;
9819;SDS011;4949;48.482;9.206;2023-02-28T08:02:16;15.10;;;10.40;;
9819;SDS011;4949;48.482;9.206;2023-02-28T08:07:18;10.07;;;8.70;;
9819;SDS011;4949;48.482;9.206;2023-02-28T08:12:21;9.63;;;8.63;;
9819;SDS011;4949;48.482;9.206;2023-02-28T08:17:22;10.70;;;9.10;;
9819;SDS011;4949;48.482;9.206;2023-02-28T08:22:23;10.20;;;9.17;;
9819;SDS011;4949;48.482;9.206;2023-02-28T08:27:25;10.20;;;9.07;;
9819;SDS011;4949;48.482;9.206;2023-02-28T08:32:26;11.40;;;10.20;;
9819;SDS011;4949;48.482;9.206;2023-02-28T08:37:27;11.20;;;10.03;;
9819;SDS011;4949;48.482;9.206;2023-02-28T08:42:28;11.60;;;9.80;;
9819;SDS011;4949;48.482;9.206;2023-02-28T08:47:28;13.70;;;9.87;;
9819;SDS011;4949;48.482;9.206;2023-02-28T08:52:29;10.50;;;9.40;;
9819;SDS011;4949;48.482;9.206;2023-02-28T08:57:32;10.70;;;9.70;;
9819;SDS011;4949;48.482;9.206;2023-02-28T09:02:33;15.07;;;8.90;;
9819;SDS011;4949;48.482;9.206;2023-02-28T09:07:37;10.80;;;9.80;;
9819;SDS011;4949;48.482;9.206;2023-02-28T09:12:39;10.43;;;9.43;;
9819;SDS011;4949;48.482;9.206;2023-02-28T09:17:39;11.57;;;8.80;;
9819;SDS011;4949;48.482;9.206;2023-02-28T09:22:40;11.80;;;9.43;;
9819;SDS011;4949;48.482;9.206;2023-02-28T09:27:43;12.37;;;10.67;;
9819;SDS011;4949;48.482;9.206;2023-02-28T09:32:46;10.20;;;8.97;;
9819;SDS011;4949;48.482;9.206;2023-02-28T09:37:53;10.93;;;9.83;;
9819;SDS011;4949;48.482;9.206;2023-02-28T09:42:58;12.63;;;10.23;;
9819;SDS011;4949;48.482;9.206;2023-02-28T09:48:03;11.03;;;9.17;;
9819;SDS011;4949;48.482;9.206;2023-02-28T09:53:34;10.47;;;9.43;;
9819;SDS011;4949;48.482;9.206;2023-02-28T10:04:04;9.73;;;8.80;;
9819;SDS011;4949;48.482;9.206;2023-02-28T10:09:26;10.63;;;9.53;;
9819;SDS011;4949;48.482;9.206;2023-02-28T10:14:32;10.57;;;9.57;;
9819;SDS011;4949;48.482;9.206;2023-02-28T10:24:50;11.87;;;10.67;;
9819;SDS011;4949;48.482;9.206;2023-02-28T10:29:54;10.43;;;9.43;;
9819;SDS011;4949;48.482;9.206;2023-02-28T10:45:23;12.87;;;9.90;;
9819;SDS011;4949;48.482;9.206;2023-02-28T10:55:45;10.47;;;9.43;;
9819;SDS011;4949;48.482;9.206;2023-02-28T11:00:59;12.20;;;10.60;;
9819;SDS011;4949;48.482;9.206;2023-02-28T11:06:06;10.93;;;9.83;;
9819;SDS011;4949;48.482;9.206;2023-02-28T11:11:20;10.57;;;9.57;;
9819;SDS011;4949;48.482;9.206;2023-02-28T11:16:31;10.30;;;9.30;;
9819;SDS011;4949;48.482;9.206;2023-02-28T11:21:37;12.50;;;10.00;;
9819;SDS011;4949;48.482;9.206;2023-02-28T11:26:45;11.07;;;10.07;;
9819;SDS011;4949;48.482;9.206;2023-02-28T11:37:12;12.97;;;10.40;;
9819;SDS011;4949;48.482;9.206;2023-02-28T11:42:25;11.23;;;9.43;;
9819;SDS011;4949;48.482;9.206;2023-02-28T12:09:29;12.40;;;9.90;;
9819;SDS011;4949;48.482;9.206;2023-02-28T12:36:20;9.90;;;8.90;;
9819;SDS011;4949;48.482;9.206;2023-02-28T12:41:40;10.57;;;9.57;;
9819;SDS011;4949;48.482;9.206;2023-02-28T12:47:12;11.00;;;10.00;;
9819;SDS011;4949;48.482;9.206;2023-02-28T12:52:29;10.47;;;9.47;;
9819;SDS011;4949;48.482;9.206;2023-02-28T12:57:42;9.63;;;8.73;;
9819;SDS011;4949;48.482;9.206;2023-02-28T13:19:28;10.47;;;9.47;;
9819;SDS011;4949;48.482;9.206;2023-02-28T13:24:42;9.43;;;8.63;;
9819;SDS011;4949;48.482;9.206;2023-02-28T13:29:46;10.13;;;9.30;;
9819;SDS011;4949;48.482;9.206;2023-02-28T13:39:58;11.30;;;10.20;;
9819;SDS011;4949;48.482;9.206;2023-02-28T13:50:14;10.30;;;9.43;;
9819;SDS011;4949;48.482;9.206;2023-02-28T13:55:35;11.47;;;9.27;;
9819;SDS011;4949;48.482;9.206;2023-02-28T14:06:30;9.90;;;9.00;;
9819;SDS011;4949;48.482;9.206;2023-02-28T14:16:37;10.23;;;9.20;;
9819;SDS011;4949;48.482;9.206;2023-02-28T14:27:15;9.80;;;8.77;;
9819;SDS011;4949;48.482;9.206;2023-02-28T14:32:32;10.60;;;9.50;;
9819;SDS011;4949;48.482;9.206;2023-02-28T14:38:13;10.23;;;9.13;;
9819;SDS011;4949;48.482;9.206;2023-02-28T14:43:26;11.83;;;10.73;;
9819;SDS011;4949;48.482;9.206;2023-02-28T14:48:28;10.70;;;9.70;;
9819;SDS011;4949;48.482;9.206;2023-02-28T14:53:36;10.87;;;9.90;;
9819;SDS011;4949;48.482;9.206;2023-02-28T14:58:37;9.80;;;8.90;;
9819;SDS011;4949;48.482;9.206;2023-02-28T15:04:02;9.60;;;8.80;;
9819;SDS011;4949;48.482;9.206;2023-02-28T15:09:16;10.20;;;9.20;;
9819;SDS011;4949;48.482;9.206;2023-02-28T15:14:19;10.47;;;9.10;;
9819;SDS011;4949;48.482;9.206;2023-02-28T15:30:08;9.67;;;8.87;;
9819;SDS011;4949;48.482;9.206;2023-02-28T15:40:26;10.13;;;9.13;;
9819;SDS011;4949;48.482;9.206;2023-02-28T15:50:46;10.93;;;9.43;;
9819;SDS011;4949;48.482;9.206;2023-02-28T15:55:55;10.33;;;9.43;;
9819;SDS011;4949;48.482;9.206;2023-02-28T16:01:16;10.33;;;9.00;;
9819;SDS011;4949;48.482;9.206;2023-02-28T16:06:33;9.90;;;9.00;;
9819;SDS011;4949;48.482;9.206;2023-02-28T16:11:43;11.60;;;10.50;;
9819;SDS011;4949;48.482;9.206;2023-02-28T16:16:48;9.70;;;8.70;;
9819;SDS011;4949;48.482;9.206;2023-02-28T16:21:54;10.33;;;9.33;;
9819;SDS011;4949;48.482;9.206;2023-02-28T16:26:55;10.63;;;9.53;;
9819;SDS011;4949;48.482;9.206;2023-02-28T16:31:59;10.70;;;9.60;;
9819;SDS011;4949;48.482;9.206;2023-02-28T16:37:05;10.93;;;9.03;;
9819;SDS011;4949;48.482;9.206;2023-02-28T16:42:23;9.93;;;8.93;;
9819;SDS011;4949;48.482;9.206;2023-02-28T16:47:27;11.10;;;9.90;;
9819;SDS011;4949;48.482;9.206;2023-02-28T16:52:33;9.63;;;8.57;;
9819;SDS011;4949;48.482;9.206;2023-02-28T16:57:36;10.80;;;9.67;;
9819;SDS011;4949;48.482;9.206;2023-02-28T17:02:38;10.40;;;9.10;;
9819;SDS011;4949;48.482;9.206;2023-02-28T17:07:39;10.43;;;9.40;;
9819;SDS011;4949;48.482;9.206;2023-02-28T17:12:44;9.80;;;8.80;;
9819;SDS011;4949;48.482;9.206;2023-02-28T17:17:52;9.50;;;8.57;;
9819;SDS011;4949;48.482;9.206;2023-02-28T17:22:53;10.17;;;9.03;;
9819;SDS011;4949;48.482;9.206;2023-02-28T17:27:59;13.80;;;10.00;;
9819;SDS011;4949;48.482;9.206;2023-02-28T17:33:02;11.07;;;9.30;;
9819;SDS011;4949;48.482;9.206;2023-02-28T17:38:03;14.10;;;12.10;;
9819;SDS011;4949;48.482;9.206;2023-02-28T17:43:07;13.80;;;12.30;;
9819;SDS011;4949;48.482;9.206;2023-02-28T17:48:11;13.77;;;12.27;;
9819;SDS011;4949;48.482;9.206;2023-02-28T17:53:12;13.43;;;12.00;;
9819;SDS011;4949;48.482;9.206;2023-02-28T17:58:15;12.47;;;11.20;;
9819;SDS011;4949;48.482;9.206;2023-02-28T18:03:19;17.60;;;14.50;;
9819;SDS011;4949;48.482;9.206;2023-02-28T18:08:26;17.43;;;11.60;;
9819;SDS011;4949;48.482;9.206;2023-02-28T18:13:29;15.93;;;12.43;;
9819;SDS011;4949;48.482;9.206;2023-02-28T18:18:30;14.40;;;12.40;;
9819;SDS011;4949;48.482;9.206;2023-02-28T18:23:31;14.00;;;12.47;;
9819;SDS011;4949;48.482;9.206;2023-02-28T18:28:32;14.57;;;12.47;;
9819;SDS011;4949;48.482;9.206;2023-02-28T18:33:42;17.07;;;14.00;;
9819;SDS011;4949;48.482;9.206;2023-02-28T18:38:47;17.33;;;14.97;;
9819;SDS011;4949;48.482;9.206;2023-02-28T18:43:51;19.73;;;16.87;;
9819;SDS011;4949;48.482;9.206;2023-02-28T18:48:53;21.30;;;15.50;;
9819;SDS011;4949;48.482;9.206;2023-02-28T18:53:56;21.10;;;15.60;;
9819;SDS011;4949;48.482;9.206;2023-02-28T18:59:00;16.40;;;14.70;;
9819;SDS011;4949;48.482;9.206;2023-02-28T19:04:01;18.60;;;14.27;;
9819;SDS011;4949;48.482;9.206;2023-02-28T19:09:09;16.43;;;14.00;;
9819;SDS011;4949;48.482;9.206;2023-02-28T19:14:15;17.80;;;15.00;;
9819;SDS011;4949;48.482;9.206;2023-02-28T19:19:15;21.70;;;15.93;;
9819;SDS011;4949;48.482;9.206;2023-02-28T19:24:16;22.20;;;18.53;;
9819;SDS011;4949;48.482;9.206;2023-02-28T19:29:17;27.80;;;20.00;;
9819;SDS011;4949;48.482;9.206;2023-02-28T19:34:17;29.43;;;21.33;;
9819;SDS011;4949;48.482;9.206;2023-02-28T19:39:23;36.63;;;24.80;;
9819;SDS011;4949;48.482;9.206;2023-02-28T19:44:26;38.67;;;27.13;;
9819;SDS011;4949;48.482;9.206;2023-02-28T19:49:30;37.67;;;27.87;;
9819;SDS011;4949;48.482;9.206;2023-02-28T19:54:31;40.57;;;27.93;;
9819;SDS011;4949;48.482;9.206;2023-02-28T19:59:37;37.67;;;27.00;;
9819;SDS011;4949;48.482;9.206;2023-02-28T20:04:38;35.90;;;25.27;;
9819;SDS011;4949;48.482;9.206;2023-02-28T20:09:38;36.40;;;24.47;;
9819;SDS011;4949;48.482;9.206;2023-02-28T20:14:43;33.97;;;25.53;;
9819;SDS011;4949;48.482;9.206;2023-02-28T20:19:44;31.03;;;22.10;;
9819;SDS011;4949;48.482;9.206;2023-02-28T20:24:52;30.03;;;23.53;;
9819;SDS011;4949;48.482;9.206;2023-02-28T20:29:55;30.07;;;23.90;;
9819;SDS011;4949;48.482;9.206;2023-02-28T20:35:01;28.93;;;22.80;;
9819;SDS011;4949;48.482;9.206;2023-02-28T20:40:07;26.67;;;22.00;;
9819;SDS011;4949;48.482;9.206;2023-02-28T20:45:11;22.83;;;19.30;;
9819;SDS011;4949;48.482;9.206;2023-02-28T20:50:17;22.63;;;19.00;;
9819;SDS011;4949;48.482;9.206;2023-02-28T20:55:21;28.40;;;22.53;;
9819;SDS011;4949;48.482;9.206;2023-02-28T21:00:21;25.07;;;21.90;;
9819;SDS011;4949;48.482;9.206;2023-02-28T21:05:25;25.60;;;20.30;;
9819;SDS011;4949;48.482;9.206;2023-02-28T21:10:28;32.17;;;22.77;;
9819;SDS011;4949;48.482;9.206;2023-02-28T21:15:35;26.00;;;22.37;;
9819;SDS011;4949;48.482;9.206;2023-02-28T21:20:40;33.70;;;23.77;;
9819;SDS011;4949;48.482;9.206;2023-02-28T21:25:41;33.67;;;25.17;;
9819;SDS011;4949;48.482;9.206;2023-02-28T21:30:47;40.30;;;24.83;;
9819;SDS011;4949;48.482;9.206;2023-02-28T21:35:47;31.20;;;24.47;;
9819;SDS011;4949;48.482;9.206;2023-02-28T21:40:54;28.43;;;22.90;;
9819;SDS011;4949;48.482;9.206;2023-02-28T21:45:58;31.57;;;24.83;;
9819;SDS011;4949;48.482;9.206;2023-02-28T21:51:04;30.47;;;23.90;;
9819;SDS011;4949;48.482;9.206;2023-02-28T21:56:29;32.40;;;24.50;;
9819;SDS011;4949;48.482;9.206;2023-02-28T22:01:37;33.10;;;24.83;;
9819;SDS011;4949;48.482;9.206;2023-02-28T22:06:45;34.03;;;24.70;;
9819;SDS011;4949;48.482;9.206;2023-02-28T22:11:52;31.10;;;22.20;;
9819;SDS011;4949;48.482;9.206;2023-02-28T22:16:53;29.80;;;22.50;;
9819;SDS011;4949;48.482;9.206;2023-02-28T22:21:55;29.73;;;22.40;;
9819;SDS011;4949;48.482;9.206;2023-02-28T22:26:59;28.23;;;21.20;;
9819;SDS011;4949;48.482;9.206;2023-02-28T22:32:02;22.10;;;16.53;;
9819;SDS011;4949;48.482;9.206;2023-02-28T22:37:10;20.80;;;17.20;;
9819;SDS011;4949;48.482;9.206;2023-02-28T22:42:11;25.30;;;16.40;;
9819;SDS011;4949;48.482;9.206;2023-02-28T22:47:14;22.27;;;16.97;;
9819;SDS011;4949;48.482;9.206;2023-02-28T22:52:17;23.77;;;17.30;;
9819;SDS011;4949;48.482;9.206;2023-02-28T22:57:21;22.90;;;18.10;;
9819;SDS011;4949;48.482;9.206;2023-02-28T23:02:24;24.13;;;19.10;;
9819;SDS011;4949;48.482;9.206;2023-02-28T23:07:25;26.70;;;18.90;;
9819;SDS011;4949;48.482;9.206;2023-02-28T23:12:26;25.00;;;19.10;;
9819;SDS011;4949;48.482;9.206;2023-02-28T23:17:31;23.77;;;18.40;;
9819;SDS011;4949;48.482;9.206;2023-02-28T23:22:36;23.13;;;17.67;;
9819;SDS011;4949;48.482;9.206;2023-02-28T23:27:37;24.40;;;18.77;;
9819;SDS011;4949;48.482;9.206;2023-02-28T23:32:40;28.33;;;18.20;;
9819;SDS011;4949;48.482;9.206;2023-02-28T23:37:41;20.07;;;17.33;;
9819;SDS011;4949;48.482;9.206;2023-02-28T23:42:47;19.17;;;16.67;;
9819;SDS011;4949;48.482;9.206;2023-02-28T23:47:50;21.33;;;16.50;;
9819;SDS011;4949;48.482;9.206;2023-02-28T23:52:53;22.77;;;17.10;;
9819;SDS011;4949;48.482;9.206;2023-02-28T23:57:59;20.50;;;16.37;;
